Time;durP1;ratioP1;P1;durP2;ratioP2;P2;SDS_P1;SDS_P2;PMS_P1;PMS_P2;Temp;Humidity;BMP_temperature;BMP_pressure;BME280_temperature;BME280_humidity;BME280_pressure;Samples;Min_cycle;Max_cycle;Signal;HPM_P1;HPM_P2
2022/07/29 10:37:03;;;;;;;;;;;;;;;35.06;27.28;99684.84;4986200;28;1361;-65
2022/07/29 10:39:31;;;;;;;;;;;;;;;35.27;27.62;99682.53;4994658;28;843;-64
2022/07/29 10:42:07;;;;;;;;;;;;;;;35.64;27.68;99694.47;4994588;28;810;-63
2022/07/29 10:44:33;;;;;;;;;;;;;;;35.53;26.67;99678.41;4994550;28;799;-63
2022/07/29 10:46:58;;;;;;;;;;;;;;;35.36;26.61;99684.03;4994620;28;1918;-64
2022/07/29 10:49:29;;;;;;;;;;;;;;;35.47;27.28;99685.72;4994379;28;898;-64
2022/07/29 10:51:56;;;;;;;;;;;;;;;35.50;27.15;99691.03;4994474;28;885;-63
2022/07/29 10:54:38;;;;;;;;;;;;;;;35.80;27.10;99680.78;4994318;28;804;-64
2022/07/29 10:57:13;;;;;;;;;;;;;;;35.68;26.19;99673.97;4994314;28;896;-67
2022/07/29 11:00:05;;;;;;;;;;;;;;;35.63;26.70;99681.41;4993742;28;882;-65
2022/07/29 11:02:32;;;;;;;;;;;;;;;35.85;26.32;99674.06;4966566;28;1345;-65
2022/07/29 11:04:59;;;;;;;;;;;;;;;36.17;26.31;99681.91;4994409;28;795;-65
2022/07/29 11:10:28;;;;;;;;;;;;;;;36.34;24.79;99661.06;4994015;28;1121;-65
2022/07/29 11:13:05;;;;;;;;;;;;;;;36.37;25.67;99674.25;4994093;28;827;-65
2022/07/29 11:15:51;;;;;;;;;;;;;;;36.62;24.67;99672.72;4993951;28;772;-64
2022/07/29 11:18:16;;;;;;;;;;;;;;;36.83;24.44;99675.22;4993834;28;1224;-64
2022/07/29 11:20:47;;;;;;;;;;;;;;;36.73;24.70;99670.13;4994056;28;1111;-64
2022/07/29 11:23:20;;;;;;;;;;;;;;;36.76;24.48;99689.09;4993849;28;807;-63
2022/07/29 11:26:06;;;;;;;;;;;;;;;36.65;24.56;99683.84;4993732;28;904;-65
2022/07/29 11:28:33;;;;;;;;;;;;;;;36.99;23.97;99670.84;4976076;28;1894;-64
2022/07/29 11:31:01;;;;;;;;;;;;;;;37.27;23.78;99665.94;4993684;28;791;-63
2022/07/29 11:33:28;;;;;;;;;;;;;;;37.59;23.84;99662.84;4993731;28;881;-65
2022/07/29 11:36:15;;;;;;;;;;;;;;;38.23;23.80;99661.38;4993596;28;809;-64
2022/07/29 11:38:41;;;;;;;;;;;;;;;38.26;22.58;99668.81;4992917;28;1420;-64
2022/07/29 11:41:23;;;;;;;;;;;;;;;37.74;22.97;99658.22;4993596;28;827;-63
2022/07/29 11:44:00;;;;;;;;;;;;;;;37.52;23.33;99660.06;4993901;28;834;-65
2022/07/29 11:46:46;;;;;;;;;;;;;;;37.93;23.00;99649.69;4993272;28;870;-65
2022/07/29 11:49:13;;;;;;;;;;;;;;;38.36;22.99;99655.94;4975627;28;950;-65
2022/07/29 11:51:40;;;;;;;;;;;;;;;38.34;22.29;99637.69;4993605;28;799;-66
2022/07/29 11:54:10;;;;;;;;;;;;;;;38.03;22.96;99644.00;4993381;28;913;-64
2022/07/29 11:56:43;;;;;;;;;;;;;;;37.97;22.61;99647.13;4993491;28;871;-61
2022/07/29 11:59:11;;;;;;;;;;;;;;;38.06;22.44;99644.91;4993487;28;874;-64
2022/07/29 12:01:37;;;;;;;;;;;;;;;38.30;22.28;99628.72;4975751;28;1376;-64
2022/07/29 12:04:06;;;;;;;;;;;;;;;38.40;22.24;99644.72;4975982;28;1357;-65
2022/07/29 12:06:32;;;;;;;;;;;;;;;38.79;21.94;99641.16;4975542;28;1890;-62
2022/07/29 12:08:58;;;;;;;;;;;;;;;39.11;21.16;99637.06;4991871;28;800;-64
2022/07/29 12:11:25;;;;;;;;;;;;;;;39.18;21.08;99639.06;4992868;28;889;-67
2022/07/29 12:13:51;;;;;;;;;;;;;;;39.19;21.34;99629.00;4992859;28;842;-65
2022/07/29 12:16:18;;;;;;;;;;;;;;;39.80;20.98;99626.19;4992854;28;898;-64
2022/07/29 12:18:54;;;;;;;;;;;;;;;40.20;20.26;99622.53;4992613;28;1124;-64
2022/07/29 12:21:19;;;;;;;;;;;;;;;39.66;20.15;99636.72;4992770;28;867;-64
2022/07/29 12:23:53;;;;;;;;;;;;;;;39.42;20.30;99622.03;4992888;28;843;-64
2022/07/29 12:26:19;;;;;;;;;;;;;;;39.78;20.46;99617.34;4992673;28;802;-64
2022/07/29 12:28:45;;;;;;;;;;;;;;;40.03;20.48;99624.88;4992603;28;1941;-65
2022/07/29 12:31:14;;;;;;;;;;;;;;;40.42;20.37;99620.44;4992873;28;811;-64
2022/07/29 12:33:41;;;;;;;;;;;;;;;40.44;19.78;99624.84;4992866;28;941;-62
2022/07/29 12:36:07;;;;;;;;;;;;;;;39.86;20.28;99617.97;4992541;28;846;-65
2022/07/29 12:38:35;;;;;;;;;;;;;;;39.30;20.81;99618.22;4992084;28;1269;-64
2022/07/29 12:41:03;;;;;;;;;;;;;;;39.28;20.98;99615.91;4974994;28;1317;-65
2022/07/29 12:43:28;;;;;;;;;;;;;;;39.06;20.54;99620.06;4992476;28;858;-64
2022/07/29 12:45:55;;;;;;;;;;;;;;;38.56;20.88;99609.84;4992386;28;811;-64
2022/07/29 12:48:40;;;;;;;;;;;;;;;38.47;21.61;99607.66;4992469;28;1923;-63
2022/07/29 12:51:08;;;;;;;;;;;;;;;38.74;21.65;99611.22;4992290;28;792;-64
2022/07/29 12:53:36;;;;;;;;;;;;;;;38.86;21.26;99610.59;4974881;28;1332;-64
2022/07/29 12:56:03;;;;;;;;;;;;;;;38.54;21.48;99606.81;4991947;28;890;-64
2022/07/29 12:58:39;;;;;;;;;;;;;;;38.85;21.46;99595.41;4992203;28;838;-65
2022/07/29 13:01:06;;;;;;;;;;;;;;;39.66;20.76;99596.25;4992262;28;838;-65
2022/07/29 13:03:44;;;;;;;;;;;;;;;39.75;20.74;99598.31;4992157;28;846;-63
2022/07/29 13:06:29;;;;;;;;;;;;;;;40.31;20.35;99597.97;4992186;28;882;-64
2022/07/29 13:09:06;;;;;;;;;;;;;;;40.44;19.43;99599.56;4990564;28;1978;-65
2022/07/29 13:11:39;;;;;;;;;;;;;;;40.44;19.58;99584.31;4991844;28;886;-65
2022/07/29 13:14:05;;;;;;;;;;;;;;;40.89;19.77;99596.03;4992213;28;1229;-65
2022/07/29 13:16:31;;;;;;;;;;;;;;;40.81;19.37;99588.31;4992191;28;843;-65
2022/07/29 13:19:07;;;;;;;;;;;;;;;40.65;19.68;99595.91;4974835;28;1344;-65
2022/07/29 13:21:32;;;;;;;;;;;;;;;40.65;19.16;99595.13;4992102;28;810;-65
2022/07/29 13:23:58;;;;;;;;;;;;;;;40.47;19.58;99589.63;4976388;28;1419;-65
2022/07/29 13:26:25;;;;;;;;;;;;;;;40.61;19.43;99586.94;4978548;28;1331;-64
2022/07/29 13:28:51;;;;;;;;;;;;;;;40.45;19.87;99594.53;4995923;28;1890;-64
2022/07/29 13:31:18;;;;;;;;;;;;;;;40.32;19.67;99587.13;4996007;28;851;-64
2022/07/29 13:33:45;;;;;;;;;;;;;;;40.40;19.64;99590.59;4996228;28;1016;-65
2022/07/29 13:36:12;;;;;;;;;;;;;;;39.86;20.18;99589.03;4996071;28;878;-66
2022/07/29 13:38:38;;;;;;;;;;;;;;;40.13;20.18;99582.19;4995140;28;1409;-65
2022/07/29 13:41:05;;;;;;;;;;;;;;;40.56;19.98;99576.44;4994930;28;1353;-66
2022/07/29 13:43:31;;;;;;;;;;;;;;;40.88;19.83;99582.94;4995778;28;848;-65
2022/07/29 13:45:58;;;;;;;;;;;;;;;40.87;19.61;99575.63;4995262;28;1579;-66
2022/07/29 13:48:25;;;;;;;;;;;;;;;41.17;19.68;99577.66;4995737;28;1918;-65
2022/07/29 13:50:52;;;;;;;;;;;;;;;40.81;19.54;99570.19;4995629;28;1193;-65
2022/07/29 13:53:17;;;;;;;;;;;;;;;40.25;19.80;99571.47;4995332;28;863;-65
2022/07/29 13:58:45;;;;;;;;;;;;;;;39.91;20.24;99561.91;4995581;28;850;-66
2022/07/29 14:04:18;;;;;;;;;;;;;;;39.58;20.91;99565.38;4995313;28;598;-66
2022/07/29 14:06:44;;;;;;;;;;;;;;;39.38;20.77;99564.63;4995192;28;1957;-65
2022/07/29 14:15:26;;;;;;;;;;;;;;;38.04;22.73;99561.84;4995470;28;637;-66
2022/07/29 14:17:56;;;;;;;;;;;;;;;38.29;22.55;99566.63;4977529;28;796;-65
2022/07/29 14:20:24;;;;;;;;;;;;;;;38.36;22.77;99578.00;4995083;28;819;-65
2022/07/29 14:22:51;;;;;;;;;;;;;;;38.24;21.99;99562.66;4995333;28;862;-66
2022/07/29 14:25:18;;;;;;;;;;;;;;;38.00;22.29;99573.81;4994922;28;811;-66
2022/07/29 14:28:11;;;;;;;;;;;;;;;38.06;22.63;99567.03;4994839;28;1894;-65
2022/07/29 14:30:43;;;;;;;;;;;;;;;37.40;23.50;99571.22;4994718;28;819;-65
2022/07/29 14:33:10;;;;;;;;;;;;;;;36.92;23.83;99565.16;4994973;28;877;-65
2022/07/29 14:35:37;;;;;;;;;;;;;;;36.53;24.75;99570.53;4993526;28;862;-64
2022/07/29 14:38:03;;;;;;;;;;;;;;;36.20;25.48;99570.66;4994442;28;1397;-65
2022/07/29 14:40:30;;;;;;;;;;;;;;;35.93;25.53;99567.59;4994696;28;795;-66
2022/07/29 14:42:57;;;;;;;;;;;;;;;35.57;26.16;99572.44;4994544;28;846;-65
2022/07/29 14:45:23;;;;;;;;;;;;;;;35.22;26.44;99565.72;4994602;28;815;-65
2022/07/29 14:47:50;;;;;;;;;;;;;;;34.93;26.58;99571.00;4994385;28;1967;-66
2022/07/29 14:50:18;;;;;;;;;;;;;;;34.75;26.71;99565.13;4994483;28;839;-65
2022/07/29 14:52:44;;;;;;;;;;;;;;;34.80;26.69;99568.38;4994391;28;855;-65
2022/07/29 14:55:11;;;;;;;;;;;;;;;34.99;26.48;99562.94;4994351;28;853;-65
2022/07/29 14:57:38;;;;;;;;;;;;;;;34.98;26.67;99567.16;4994398;28;842;-64
2022/07/29 15:00:11;;;;;;;;;;;;;;;34.60;27.19;99565.16;4994153;28;824;-65
2022/07/29 15:02:38;;;;;;;;;;;;;;;34.16;27.56;99568.28;4994625;28;835;-65
2022/07/29 15:05:05;;;;;;;;;;;;;;;33.93;28.35;99569.03;4994578;28;854;-66
2022/07/29 15:07:31;;;;;;;;;;;;;;;33.99;28.33;99568.06;4994357;28;1939;-65
2022/07/29 15:09:58;;;;;;;;;;;;;;;34.07;28.50;99563.84;4994359;28;886;-65
2022/07/29 15:12:24;;;;;;;;;;;;;;;34.50;28.30;99569.94;4994315;28;807;-65
2022/07/29 15:14:51;;;;;;;;;;;;;;;34.81;28.00;99569.91;4994443;28;862;-66
2022/07/29 15:17:18;;;;;;;;;;;;;;;34.98;27.08;99567.16;4994038;28;858;-65
2022/07/29 15:19:48;;;;;;;;;;;;;;;35.04;27.19;99561.22;4976551;28;1538;-66
2022/07/29 15:22:15;;;;;;;;;;;;;;;34.92;26.90;99558.00;4993752;28;834;-66
2022/07/29 15:24:47;;;;;;;;;;;;;;;34.66;27.56;99565.75;4993905;28;827;-66
2022/07/29 15:27:14;;;;;;;;;;;;;;;34.35;27.84;99559.25;4993748;28;1953;-66
2022/07/29 15:29:41;;;;;;;;;;;;;;;34.16;28.22;99566.19;4993638;28;819;-66
2022/07/29 15:32:10;;;;;;;;;;;;;;;34.49;28.48;99559.81;4993639;28;1085;-66
2022/07/29 15:34:37;;;;;;;;;;;;;;;34.70;28.27;99563.25;4993682;28;819;-66
2022/07/29 15:37:04;;;;;;;;;;;;;;;34.77;27.89;99562.44;4993573;28;878;-66
2022/07/29 15:39:31;;;;;;;;;;;;;;;34.77;28.25;99570.31;4993421;28;1463;-66
2022/07/29 15:41:59;;;;;;;;;;;;;;;34.80;27.94;99557.66;4993585;28;820;-66
2022/07/29 15:44:26;;;;;;;;;;;;;;;34.44;28.31;99575.91;4993454;28;807;-67
2022/07/29 15:47:08;;;;;;;;;;;;;;;33.86;29.42;99574.75;4993019;28;1973;-66
2022/07/29 16:01:47;;;;;;;;;;;;;;;31.17;32.92;99581.47;4993602;28;622;-66
2022/07/29 16:04:14;;;;;;;;;;;;;;;30.97;33.29;99582.94;4993300;28;840;-66
2022/07/29 16:06:41;;;;;;;;;;;;;;;30.68;33.44;99559.88;4993089;28;1899;-65
2022/07/29 16:09:25;;;;;;;;;;;;;;;30.71;33.75;99585.22;4993209;28;815;-66
2022/07/29 16:11:52;;;;;;;;;;;;;;;30.61;33.59;99584.13;4992956;28;845;-66
2022/07/29 16:24:03;;;;;;;;;;;;;;;29.96;34.43;99596.91;4993323;28;720;-65
2022/07/29 16:26:31;;;;;;;;;;;;;;;29.79;34.61;99600.81;4992709;28;811;-65
2022/07/29 16:28:58;;;;;;;;;;;;;;;29.61;35.12;99596.66;4992572;28;1956;-65
2022/07/29 16:31:24;;;;;;;;;;;;;;;29.47;35.47;99600.78;4992584;28;772;-66
2022/07/29 16:33:52;;;;;;;;;;;;;;;29.34;35.76;99604.31;4992991;28;1014;-66
2022/07/29 16:36:19;;;;;;;;;;;;;;;29.26;35.81;99617.63;4992547;28;804;-66
2022/07/29 16:38:46;;;;;;;;;;;;;;;29.18;35.84;99616.69;4992462;28;1334;-66
2022/07/29 16:41:13;;;;;;;;;;;;;;;29.05;36.00;99614.50;4992430;28;867;-66
2022/07/29 16:43:40;;;;;;;;;;;;;;;28.90;35.82;99618.53;4992469;28;854;-65
2022/07/29 16:46:08;;;;;;;;;;;;;;;28.76;36.21;99616.88;4992472;28;847;-65
2022/07/29 16:48:37;;;;;;;;;;;;;;;28.61;36.94;99620.13;4992296;28;1910;-65
2022/07/29 16:51:07;;;;;;;;;;;;;;;28.50;37.10;99612.50;4992302;28;819;-65
2022/07/29 16:53:34;;;;;;;;;;;;;;;28.39;37.31;99615.44;4992593;28;894;-65
2022/07/29 16:56:00;;;;;;;;;;;;;;;28.26;37.91;99623.84;4992798;28;855;-65
2022/07/29 16:58:26;;;;;;;;;;;;;;;28.05;38.14;99624.25;4991438;28;843;-65
2022/07/29 17:00:53;;;;;;;;;;;;;;;27.86;38.50;99623.38;4992346;28;867;-65
2022/07/29 17:03:19;;;;;;;;;;;;;;;27.73;39.09;99621.13;4992132;28;855;-65
2022/07/29 17:05:46;;;;;;;;;;;;;;;27.54;39.60;99623.06;4992180;28;874;-65
2022/07/29 17:08:13;;;;;;;;;;;;;;;27.36;39.85;99619.53;4992096;28;1953;-65
2022/07/29 17:10:39;;;;;;;;;;;;;;;27.18;40.14;99620.88;4992175;28;831;-65
2022/07/29 17:13:06;;;;;;;;;;;;;;;27.03;40.67;99631.78;4992193;28;839;-65
2022/07/29 17:15:32;;;;;;;;;;;;;;;26.84;40.81;99634.41;4992064;28;842;-65
2022/07/29 17:18:00;;;;;;;;;;;;;;;26.62;41.73;99633.19;4992066;28;898;-65
2022/07/29 17:20:27;;;;;;;;;;;;;;;26.40;42.15;99633.19;4992014;28;807;-65
2022/07/29 17:22:54;;;;;;;;;;;;;;;26.20;42.83;99637.06;4992093;28;839;-65
2022/07/29 17:25:20;;;;;;;;;;;;;;;25.98;43.55;99637.84;4991938;28;874;-65
2022/07/29 17:27:49;;;;;;;;;;;;;;;25.72;44.60;99635.22;4974409;28;1886;-65
2022/07/29 17:30:15;;;;;;;;;;;;;;;25.40;45.09;99639.00;4991960;28;839;-65
2022/07/29 17:32:42;;;;;;;;;;;;;;;25.18;45.57;99633.25;4974444;28;1190;-65
2022/07/29 17:38:05;;;;;;;;;;;;;;;24.92;48.27;99647.50;4912765;29;1325;-65
2022/07/29 17:40:32;;;;;;;;;;;;;;;24.92;49.20;99650.31;4913055;29;804;-65
2022/07/29 17:42:59;;;;;;;;;;;;;;;24.83;51.52;99652.06;4913021;29;949;-65
2022/07/29 17:45:25;;;;;;;;;;;;;;;24.77;53.25;99644.84;4912976;29;871;-65
2022/07/29 17:47:52;;;;;;;;;;;;;;;24.67;54.52;99663.31;4912826;29;1939;-65
2022/07/29 17:50:18;;;;;;;;;;;;;;;24.56;56.54;99661.16;4897071;29;1310;-65
2022/07/29 17:52:45;;;;;;;;;;;;;;;24.46;57.61;99664.13;4912931;29;883;-65
2022/07/29 17:55:12;;;;;;;;;;;;;;;24.29;58.97;99668.88;4912931;29;914;-65
2022/07/29 17:57:38;;;;;;;;;;;;;;;24.10;60.43;99670.53;4896994;29;1199;-65
2022/07/29 18:00:06;;;;;;;;;;;;;;;23.91;61.69;99664.44;4913062;29;973;-65
2022/07/29 18:02:32;;;;;;;;;;;;;;;23.74;63.06;99673.47;4912901;29;907;-65
2022/07/29 18:04:59;;;;;;;;;;;;;;;23.59;64.39;99670.00;4912965;29;862;-65
2022/07/29 18:07:25;;;;;;;;;;;;;;;23.57;65.57;99673.28;4912991;29;1981;-65
2022/07/29 18:09:52;;;;;;;;;;;;;;;23.49;66.53;99674.22;4914529;29;816;-65
2022/07/29 18:12:19;;;;;;;;;;;;;;;23.38;67.67;99681.28;4916468;29;861;-65
2022/07/29 18:14:45;;;;;;;;;;;;;;;23.22;68.53;99681.88;4953441;28;933;-65
2022/07/29 18:17:12;;;;;;;;;;;;;;;23.04;69.81;99680.06;4976392;28;822;-65
2022/07/29 18:19:39;;;;;;;;;;;;;;;22.91;70.96;99688.84;4976251;28;815;-65
2022/07/29 18:22:07;;;;;;;;;;;;;;;22.78;71.92;99691.22;4975680;28;832;-65
2022/07/29 18:24:34;;;;;;;;;;;;;;;22.67;72.49;99688.25;4975875;28;788;-64
2022/07/29 18:27:00;;;;;;;;;;;;;;;22.57;72.18;99698.84;4975579;28;1863;-65
2022/07/29 18:29:27;;;;;;;;;;;;;;;22.53;71.76;99699.06;4975858;28;800;-65
2022/07/29 18:31:54;;;;;;;;;;;;;;;22.48;71.41;99702.53;4975729;28;1031;-65
2022/07/29 18:34:20;;;;;;;;;;;;;;;22.44;71.57;99701.97;4975382;28;842;-65
2022/07/29 18:36:47;;;;;;;;;;;;;;;22.38;71.39;99709.53;4975403;28;866;-65
2022/07/29 18:39:14;;;;;;;;;;;;;;;22.27;71.13;99706.53;4991922;28;1454;-64
2022/07/29 18:41:42;;;;;;;;;;;;;;;22.18;71.15;99704.56;4994674;28;819;-65
2022/07/29 18:44:10;;;;;;;;;;;;;;;22.09;70.81;99704.69;4994929;28;846;-65
2022/07/29 18:46:37;;;;;;;;;;;;;;;21.98;70.48;99699.63;4994860;28;803;-65
2022/07/29 18:49:03;;;;;;;;;;;;;;;21.93;70.05;99697.47;4977128;28;1961;-65
2022/07/29 18:51:30;;;;;;;;;;;;;;;21.85;69.80;99697.09;4995187;28;831;-65
2022/07/29 18:53:56;;;;;;;;;;;;;;;21.87;69.89;99707.84;4994417;28;850;-65
2022/07/29 18:56:23;;;;;;;;;;;;;;;21.86;69.90;99709.88;4994605;28;804;-65
2022/07/29 18:58:50;;;;;;;;;;;;;;;21.76;70.35;99711.22;4976771;28;1197;-65
2022/07/29 19:01:17;;;;;;;;;;;;;;;21.86;70.52;99712.69;4994411;28;800;-65
2022/07/29 19:03:43;;;;;;;;;;;;;;;21.92;69.84;99707.19;4994241;28;894;-65
2022/07/29 19:06:10;;;;;;;;;;;;;;;21.84;70.16;99709.59;4976750;28;1206;-65
2022/07/29 19:08:36;;;;;;;;;;;;;;;21.75;70.24;99712.50;4994084;28;1882;-65
2022/07/29 19:11:02;;;;;;;;;;;;;;;21.64;70.44;99710.25;4994078;28;830;-65
2022/07/29 19:13:29;;;;;;;;;;;;;;;21.54;70.59;99701.09;4976570;28;878;-65
2022/07/29 19:15:56;;;;;;;;;;;;;;;21.41;70.84;99708.97;4993963;28;796;-65
2022/07/29 19:18:23;;;;;;;;;;;;;;;21.33;71.09;99710.59;4993968;28;811;-65
2022/07/29 19:20:50;;;;;;;;;;;;;;;21.34;71.42;99698.09;4993221;28;874;-65
2022/07/29 19:23:17;;;;;;;;;;;;;;;21.24;71.62;99699.41;4993854;28;875;-65
2022/07/29 19:25:44;;;;;;;;;;;;;;;21.18;71.65;99702.88;4993705;28;803;-65
2022/07/29 19:28:09;;;;;;;;;;;;;;;21.15;71.55;99703.06;4993749;28;1942;-65
2022/07/29 19:30:36;;;;;;;;;;;;;;;21.05;72.12;99710.00;4993872;28;816;-65
2022/07/29 19:33:03;;;;;;;;;;;;;;;20.99;72.57;99712.69;4993911;28;1019;-65
2022/07/29 19:35:32;;;;;;;;;;;;;;;20.98;72.53;99714.72;4993600;28;882;-65
2022/07/29 19:37:59;;;;;;;;;;;;;;;20.98;73.69;99706.28;4993401;28;1230;-65
2022/07/29 19:40:27;;;;;;;;;;;;;;;21.13;74.74;99705.59;4993528;28;863;-65
2022/07/29 19:42:54;;;;;;;;;;;;;;;21.20;74.85;99703.19;4993438;28;787;-65
2022/07/29 19:45:21;;;;;;;;;;;;;;;21.10;75.56;99698.09;4993694;28;803;-65
2022/07/29 19:47:48;;;;;;;;;;;;;;;20.92;76.11;99699.00;4993392;28;1911;-65
2022/07/29 19:50:15;;;;;;;;;;;;;;;20.80;76.65;99697.94;4975812;28;1293;-64
2022/07/29 19:52:42;;;;;;;;;;;;;;;20.72;76.25;99700.34;4993365;28;771;-64
2022/07/29 19:55:09;;;;;;;;;;;;;;;20.63;76.10;99700.34;4993201;28;803;-64
2022/07/29 19:57:36;;;;;;;;;;;;;;;20.68;75.88;99702.53;4993215;28;842;-64
2022/07/29 20:00:03;;;;;;;;;;;;;;;20.72;75.65;99708.00;4993161;28;854;-65
2022/07/29 20:02:30;;;;;;;;;;;;;;;20.71;75.38;99709.22;4993464;28;791;-65
2022/07/29 20:04:57;;;;;;;;;;;;;;;20.68;75.65;99704.56;4993001;28;875;-64
2022/07/29 20:07:24;;;;;;;;;;;;;;;20.66;75.46;99709.88;4992998;28;1947;-64
2022/07/29 20:09:53;;;;;;;;;;;;;;;20.72;75.38;99708.75;4992925;28;922;-64
2022/07/29 20:12:21;;;;;;;;;;;;;;;20.80;75.25;99706.38;4992949;28;918;-64
2022/07/29 20:14:48;;;;;;;;;;;;;;;20.82;75.27;99703.88;4993511;28;858;-65
2022/07/29 20:17:15;;;;;;;;;;;;;;;20.86;75.01;99710.09;4992963;28;796;-65
2022/07/29 20:19:42;;;;;;;;;;;;;;;20.82;75.08;99705.91;4975703;28;1336;-65
2022/07/29 20:22:09;;;;;;;;;;;;;;;20.84;75.65;99706.19;4993524;28;905;-64
2022/07/29 20:24:35;;;;;;;;;;;;;;;21.01;75.60;99716.56;4993259;28;823;-64
2022/07/29 20:27:02;;;;;;;;;;;;;;;21.10;75.46;99709.34;4992626;28;1945;-65
2022/07/29 20:29:29;;;;;;;;;;;;;;;21.11;75.66;99708.09;4975288;28;1182;-65
2022/07/29 20:31:55;;;;;;;;;;;;;;;21.15;75.54;99708.69;4992443;28;999;-65
2022/07/29 20:34:22;;;;;;;;;;;;;;;21.09;75.73;99711.38;4991876;28;784;-65
2022/07/29 20:36:49;;;;;;;;;;;;;;;21.11;75.78;99708.09;4992489;28;839;-65
2022/07/29 20:39:15;;;;;;;;;;;;;;;21.10;75.84;99709.34;4992361;28;1327;-65
2022/07/29 20:41:43;;;;;;;;;;;;;;;21.08;76.01;99709.03;4992521;28;882;-65
2022/07/29 20:44:10;;;;;;;;;;;;;;;21.05;76.21;99712.81;4992432;28;812;-65
2022/07/29 20:46:38;;;;;;;;;;;;;;;21.00;76.46;99703.78;4992391;28;851;-64
2022/07/29 20:49:04;;;;;;;;;;;;;;;20.94;76.79;99700.06;4992339;28;1967;-64
2022/07/29 20:51:31;;;;;;;;;;;;;;;20.84;76.94;99695.75;4992295;28;807;-65
2022/07/29 20:53:57;;;;;;;;;;;;;;;20.71;77.45;99695.19;4974873;28;812;-65
2022/07/29 20:56:24;;;;;;;;;;;;;;;20.60;77.62;99690.09;4992321;28;811;-65
2022/07/29 20:58:51;;;;;;;;;;;;;;;20.50;77.94;99694.16;4992257;28;886;-65
2022/07/29 21:01:17;;;;;;;;;;;;;;;20.40;78.40;99699.03;4992174;28;803;-65
2022/07/29 21:03:44;;;;;;;;;;;;;;;20.33;78.98;99688.13;4974689;28;1321;-65
2022/07/29 21:06:11;;;;;;;;;;;;;;;20.28;79.22;99702.81;4992165;28;819;-65
2022/07/29 21:08:37;;;;;;;;;;;;;;;20.24;79.75;99705.00;4992041;28;1886;-65
2022/07/29 21:11:04;;;;;;;;;;;;;;;20.24;79.93;99702.19;4974750;28;1190;-65
2022/07/29 21:13:36;;;;;;;;;;;;;;;20.27;80.35;99706.84;4974668;28;1214;-65
2022/07/29 21:16:11;;;;;;;;;;;;;;;20.19;80.69;99704.38;4992177;28;1173;-65
2022/07/29 21:18:42;;;;;;;;;;;;;;;20.15;81.41;99708.59;4992046;28;859;-64
2022/07/29 21:21:08;;;;;;;;;;;;;;;20.15;81.88;99703.78;4992089;28;784;-65
2022/07/29 21:23:35;;;;;;;;;;;;;;;20.17;82.31;99712.50;4992004;28;792;-65
2022/07/29 21:26:02;;;;;;;;;;;;;;;20.20;82.71;99707.97;4992040;28;788;-65
2022/07/29 21:28:35;;;;;;;;;;;;;;;20.17;83.10;99711.72;4991914;28;1886;-65
2022/07/29 21:31:06;;;;;;;;;;;;;;;20.09;83.77;99710.47;4991998;28;851;-65
2022/07/29 21:33:32;;;;;;;;;;;;;;;19.98;84.24;99696.94;4992061;28;1037;-65
2022/07/29 21:35:59;;;;;;;;;;;;;;;19.84;84.69;99695.53;4991951;28;827;-65
2022/07/29 21:38:27;;;;;;;;;;;;;;;19.82;85.27;99702.88;4991666;28;1406;-65
2022/07/29 21:40:54;;;;;;;;;;;;;;;19.82;85.51;99702.88;4992473;28;756;-65
2022/07/29 21:43:20;;;;;;;;;;;;;;;19.73;86.29;99707.25;4992138;28;816;-65
2022/07/29 21:45:49;;;;;;;;;;;;;;;19.79;86.38;99705.38;4977642;28;1166;-65
2022/07/29 21:48:22;;;;;;;;;;;;;;;19.74;86.52;99703.22;4996043;28;1935;-65
2022/07/29 21:50:49;;;;;;;;;;;;;;;19.71;86.96;99697.75;4995643;28;792;-65
2022/07/29 21:53:16;;;;;;;;;;;;;;;19.66;87.37;99701.16;4995473;28;855;-65
2022/07/29 21:55:43;;;;;;;;;;;;;;;19.63;88.01;99694.47;4995509;28;776;-65
2022/07/29 21:58:14;;;;;;;;;;;;;;;19.73;88.35;99701.63;4977999;28;1320;-65
2022/07/29 22:00:40;;;;;;;;;;;;;;;19.83;87.82;99694.00;4995442;28;834;-65
2022/07/29 22:03:06;;;;;;;;;;;;;;;19.85;87.96;99694.31;4995385;28;799;-65
2022/07/29 22:05:33;;;;;;;;;;;;;;;19.98;87.64;99700.53;4995282;28;863;-65
2022/07/29 22:08:00;;;;;;;;;;;;;;;20.05;86.98;99696.63;4977702;28;1886;-65
2022/07/29 22:10:28;;;;;;;;;;;;;;;19.97;87.13;99698.97;4995315;28;823;-65
2022/07/29 22:12:55;;;;;;;;;;;;;;;19.85;87.17;99702.72;4995337;28;866;-65
2022/07/29 22:15:22;;;;;;;;;;;;;;;19.88;87.25;99698.97;4995188;28;827;-65
2022/07/29 22:17:49;;;;;;;;;;;;;;;20.09;86.69;99700.03;4995041;28;807;-65
2022/07/29 22:20:16;;;;;;;;;;;;;;;20.37;85.25;99691.53;4995136;28;796;-65
2022/07/29 22:22:43;;;;;;;;;;;;;;;20.54;84.29;99689.91;4994918;28;838;-65
2022/07/29 22:25:10;;;;;;;;;;;;;;;20.75;83.30;99687.38;4994997;28;800;-64
2022/07/29 22:27:37;;;;;;;;;;;;;;;20.96;82.15;99680.69;4977364;28;1887;-65
2022/07/29 22:30:04;;;;;;;;;;;;;;;21.13;81.09;99680.28;4994904;28;569;-65
2022/07/29 22:32:31;;;;;;;;;;;;;;;21.19;80.55;99679.16;4994868;28;1010;-65
2022/07/29 22:34:57;;;;;;;;;;;;;;;21.27;80.04;99665.50;4977318;28;1340;-65
2022/07/29 22:37:24;;;;;;;;;;;;;;;21.28;79.96;99666.28;4994523;28;1231;-65
2022/07/29 22:39:51;;;;;;;;;;;;;;;21.17;80.02;99666.84;4994705;28;850;-65
2022/07/29 22:42:17;;;;;;;;;;;;;;;20.95;80.64;99670.72;4994992;28;882;-65
2022/07/29 22:44:44;;;;;;;;;;;;;;;20.75;81.41;99667.72;4994553;28;831;-64
2022/07/29 22:47:11;;;;;;;;;;;;;;;20.85;81.94;99665.66;4994538;28;1962;-65
2022/07/29 22:49:37;;;;;;;;;;;;;;;21.12;82.32;99662.66;4994520;28;906;-64
2022/07/29 22:52:04;;;;;;;;;;;;;;;21.28;81.81;99661.44;4994387;28;850;-65
2022/07/29 22:54:31;;;;;;;;;;;;;;;21.44;81.90;99659.47;4994765;28;792;-65
2022/07/29 22:56:57;;;;;;;;;;;;;;;21.54;81.77;99663.75;4993326;28;831;-64
2022/07/29 22:59:24;;;;;;;;;;;;;;;21.55;82.23;99662.50;4976910;28;812;-65
2022/07/29 23:01:51;;;;;;;;;;;;;;;21.56;82.63;99664.06;4994326;28;834;-65
2022/07/29 23:04:22;;;;;;;;;;;;;;;21.55;83.08;99670.94;4994433;28;804;-65
2022/07/29 23:06:49;;;;;;;;;;;;;;;21.51;83.61;99673.19;4994187;28;807;-65
2022/07/29 23:09:16;;;;;;;;;;;;;;;21.48;84.43;99668.50;4994138;28;1984;-65
2022/07/29 23:11:42;;;;;;;;;;;;;;;21.47;84.68;99666.97;4994129;28;776;-64
2022/07/29 23:14:09;;;;;;;;;;;;;;;21.37;84.83;99652.94;4994057;28;863;-65
2022/07/29 23:16:36;;;;;;;;;;;;;;;21.28;85.44;99661.44;4994017;28;836;-65
2022/07/29 23:19:02;;;;;;;;;;;;;;;21.15;85.75;99661.69;4994197;28;812;-65
2022/07/29 23:21:29;;;;;;;;;;;;;;;20.99;86.12;99657.28;4993872;28;819;-65
2022/07/29 23:23:55;;;;;;;;;;;;;;;20.75;86.88;99657.25;4993883;28;847;-65
2022/07/29 23:26:22;;;;;;;;;;;;;;;20.70;88.16;99657.16;4993876;28;839;-65
2022/07/29 23:28:49;;;;;;;;;;;;;;;20.68;87.82;99657.59;4993725;28;1898;-65
2022/07/29 23:31:16;;;;;;;;;;;;;;;20.44;86.96;99665.16;4976275;28;1191;-65
2022/07/29 23:33:42;;;;;;;;;;;;;;;20.29;87.07;99659.44;4993685;28;932;-65
2022/07/29 23:36:09;;;;;;;;;;;;;;;20.16;86.75;99660.44;4993652;28;804;-65
2022/07/29 23:38:38;;;;;;;;;;;;;;;20.00;86.61;99666.41;4993462;28;1224;-65
2022/07/29 23:41:07;;;;;;;;;;;;;;;19.81;86.89;99665.66;4993598;28;851;-65
2022/07/29 23:43:35;;;;;;;;;;;;;;;19.70;88.00;99663.34;4975995;28;862;-65
2022/07/29 23:46:01;;;;;;;;;;;;;;;19.93;90.51;99661.91;4975974;28;1312;-65
2022/07/29 23:48:30;;;;;;;;;;;;;;;20.13;92.08;99657.78;4993379;28;1994;-64
2022/07/29 23:50:59;;;;;;;;;;;;;;;20.49;93.14;99654.06;4975820;28;1500;-65
2022/07/29 23:53:26;;;;;;;;;;;;;;;20.75;93.39;99654.44;4993359;28;909;-65
2022/07/29 23:55:52;;;;;;;;;;;;;;;20.79;91.89;99643.03;4993327;28;799;-65
2022/07/29 23:58:19;;;;;;;;;;;;;;;20.48;90.08;99660.94;4993217;28;854;-65
